G. M. Dannevig — LINW — position and weather

sailwx.info

Track history (hours):
 
Tides and Currents Weather Stations Pressure Air Temp Water Temp Dewpoint Dewpoint Depression Visibility Wind Speed Wind Dir Waves Ship Positions

Oceanographic research ship G. M. Dannevig (Norway)

Detailed information on ship capabilities available from University of Delaware's Ocean Information Center.

Last reported at 2017-Sep-24 16:59 UTC. Time now 2017-Sep-24 17:26 UTC.
Position N 59°00' E 009°45'.

Length 27 m; draft 0.35 m.

Type: Dredging. MMSI: 258513000.

Date/timePositionNaut miles runAvg speedWind from/ knotsBaromVisibWave heightAir tempDewpointWater temp
2017-Sep-24 16:59N 59°00' E 009°45'0 0.0
2017-Sep-24 16:30N 59°00' E 009°45'0 0.0
2017-Sep-24 16:00N 59°00' E 009°45'0 0.0
2017-Sep-24 15:30N 59°00' E 009°45'0 0.0
2017-Sep-24 15:00N 59°00' E 009°45'0 0.0
2017-Sep-24 14:30N 59°00' E 009°45'0 0.0
2017-Sep-24 14:00N 59°00' E 009°45'0 0.0
2017-Sep-24 13:30N 59°00' E 009°45'1 1.2
2017-Sep-24 13:00N 59°01' E 009°45'4 8.8
2017-Sep-24 12:30N 59°05' E 009°42'1 2.3
2017-Sep-24 12:00N 59°06' E 009°43'1 1.0
2017-Sep-24 11:30N 59°05' E 009°42'2 4.8
2017-Sep-24 11:00N 59°03' E 009°43'4 7.7
2017-Sep-24 10:30N 58°59' E 009°45'4 8.2
2017-Sep-24 10:00N 58°56' E 009°41'4 8.5
2017-Sep-24 09:30N 58°54' E 009°33'3 5.5
2017-Sep-24 09:00N 58°54' E 009°28'0 0.9
2017-Sep-24 08:30N 58°54' E 009°28'0 0.1
2017-Sep-24 07:59N 58°54' E 009°28'0 0.2
2017-Sep-24 07:30N 58°54' E 009°28'0 0.1
2017-Sep-24 07:00N 58°54' E 009°28'0 0.1
2017-Sep-24 06:30N 58°54' E 009°28'2 4.5
2017-Sep-24 06:00N 58°52' E 009°25'0 0.0
2017-Sep-24 05:30N 58°52' E 009°25'0 0.0
2017-Sep-24 05:00N 58°52' E 009°25'0 0.0
2017-Sep-24 04:30N 58°52' E 009°25'0 0.0
2017-Sep-24 04:00N 58°52' E 009°25'0 0.0
2017-Sep-24 03:31N 58°52' E 009°25'0 0.0
2017-Sep-24 03:00N 58°52' E 009°25'0 0.0
2017-Sep-24 02:31N 58°52' E 009°25'0 0.0
2017-Sep-24 02:00N 58°52' E 009°25'0 0.0
2017-Sep-24 01:30N 58°52' E 009°25'0 0.0
2017-Sep-24 01:00N 58°52' E 009°25'0 0.0
2017-Sep-24 00:30N 58°52' E 009°25'0 0.0
2017-Sep-24 00:00N 58°52' E 009°25'0 0.0
2017-Sep-23 23:30N 58°52' E 009°25'0 0.0
2017-Sep-23 23:00N 58°52' E 009°25'0 0.0
2017-Sep-23 22:30N 58°52' E 009°25'0 0.0
2017-Sep-23 22:00N 58°52' E 009°25'0 0.0
2017-Sep-23 21:30N 58°52' E 009°25'0 0.0
2017-Sep-23 21:00N 58°52' E 009°25'0 0.0
2017-Sep-23 20:30N 58°52' E 009°25'0 0.0
2017-Sep-23 20:00N 58°52' E 009°25'11 0.3
2017-Sep-22 02:00N 58°43' E 009°14'0 0.0
2017-Sep-22 01:30N 58°43' E 009°14'0 0.0
2017-Sep-22 01:00N 58°43' E 009°14'0 0.0
2017-Sep-22 00:30N 58°43' E 009°14'0 0.0
2017-Sep-22 00:00N 58°43' E 009°14'0 0.0
2017-Sep-21 23:31N 58°43' E 009°14'0 0.0
2017-Sep-21 23:00N 58°43' E 009°14'0 0.0
2017-Sep-21 22:30N 58°43' E 009°14'0 0.0
2017-Sep-21 22:00N 58°43' E 009°14'0 0.0
2017-Sep-21 21:30N 58°43' E 009°14'0 0.0
2017-Sep-21 21:00N 58°43' E 009°14'0 0.0
2017-Sep-21 20:30N 58°43' E 009°14'0 0.0
2017-Sep-21 20:00N 58°43' E 009°14'0 0.0
2017-Sep-21 19:30N 58°43' E 009°14'0 0.0
2017-Sep-21 19:00N 58°43' E 009°14'0 0.0
2017-Sep-21 18:30N 58°43' E 009°14'0 0.0
2017-Sep-21 18:00N 58°43' E 009°14'0 0.0
2017-Sep-21 17:29N 58°43' E 009°14'0 0.0
2017-Sep-21 16:59N 58°43' E 009°14'0 0.0
2017-Sep-21 16:30N 58°43' E 009°14'0 0.0
2017-Sep-21 16:00N 58°43' E 009°14'0 0.0
2017-Sep-21 15:30N 58°43' E 009°14'1 2.7
2017-Sep-21 15:00N 58°44' E 009°15'3 6.0
2017-Sep-21 14:30N 58°44' E 009°10'1 2.6
2017-Sep-21 14:00N 58°44' E 009°07'2 3.1
2017-Sep-21 13:30N 58°43' E 009°11'3 6.2
2017-Sep-21 13:00N 58°44' E 009°05'4 7.9
2017-Sep-21 12:29N 58°44' E 009°13'1 2.9
2017-Sep-21 12:00N 58°44' E 009°15'3 6.2
2017-Sep-21 11:30N 58°42' E 009°10'1 1.1
2017-Sep-21 11:00N 58°42' E 009°09'0 0.1
2017-Sep-21 10:30N 58°42' E 009°09'0 0.4
2017-Sep-21 10:00N 58°42' E 009°09'1 1.3
2017-Sep-21 09:30N 58°42' E 009°08'0 0.6
2017-Sep-21 09:00N 58°41' E 009°07'0 0.2
2017-Sep-21 08:30N 58°42' E 009°07'1 2.1
2017-Sep-21 08:00N 58°41' E 009°06'0 0.2
2017-Sep-21 07:30N 58°41' E 009°05'0 0.3
2017-Sep-21 07:00N 58°41' E 009°05'3 6.0
2017-Sep-21 06:29N 58°42' E 009°11'2 4.5
2017-Sep-21 05:59N 58°43' E 009°14'0 0.0
2017-Sep-21 05:30N 58°43' E 009°14'0 0.0
2017-Sep-21 05:00N 58°43' E 009°14'0 0.0
2017-Sep-21 04:30N 58°43' E 009°14'0 0.0
2017-Sep-21 04:00N 58°43' E 009°14'0 0.0
2017-Sep-21 03:30N 58°43' E 009°14'0 0.0
2017-Sep-21 03:00N 58°43' E 009°14'0 0.0
2017-Sep-21 02:30N 58°43' E 009°14'0 0.0
2017-Sep-21 02:00N 58°43' E 009°14'0 0.0
2017-Sep-21 01:30N 58°43' E 009°14'0 0.0
2017-Sep-21 01:00N 58°43' E 009°14'0 0.0
2017-Sep-21 00:31N 58°43' E 009°14'0 0.0
2017-Sep-21 00:00N 58°43' E 009°14'0 0.0
2017-Sep-20 23:30N 58°43' E 009°14'0 0.0
2017-Sep-20 23:00N 58°43' E 009°14'0 0.0
2017-Sep-20 22:30N 58°43' E 009°14'0 0.0
2017-Sep-20 22:00N 58°43' E 009°14'0 0.0
2017-Sep-20 21:30N 58°43' E 009°14'0 0.0
2017-Sep-20 21:00N 58°43' E 009°14'0 0.0
2017-Sep-20 20:30N 58°43' E 009°14'0 0.0
2017-Sep-20 20:00N 58°43' E 009°14'0 0.0
2017-Sep-20 19:30N 58°43' E 009°14'0 0.0
2017-Sep-20 18:59N 58°43' E 009°14'0 0.0
2017-Sep-20 18:30N 58°43' E 009°14'0 0.0
2017-Sep-20 18:00N 58°43' E 009°14'0 0.0
2017-Sep-20 17:30N 58°43' E 009°14'0 0.0
2017-Sep-20 17:00N 58°43' E 009°14'0 0.0
2017-Sep-20 16:30N 58°43' E 009°14'0 0.0
2017-Sep-20 16:00N 58°43' E 009°14'0 0.0
2017-Sep-20 15:30N 58°43' E 009°14'2 3.9
2017-Sep-20 15:00N 58°42' E 009°12'1 0.6
2017-Sep-20 14:00N 58°42' E 009°13'2 5.1
2017-Sep-20 13:30N 58°40' E 009°12'3 6.6
2017-Sep-20 13:00N 58°38' E 009°06'0 0.9
2017-Sep-20 12:30N 58°38' E 009°06'1 2.2
2017-Sep-20 12:00N 58°37' E 009°04'0 0.2
2017-Sep-20 11:30N 58°37' E 009°04'1 2.3
2017-Sep-20 11:00N 58°37' E 009°02'0 0.1
2017-Sep-20 10:30N 58°37' E 009°02'0 0.0
2017-Sep-20 10:00N 58°37' E 009°02'2 4.6
2017-Sep-20 09:30N 58°35' E 009°02'2 4.8
2017-Sep-20 09:00N 58°36' E 008°58'1 1.4
2017-Sep-20 08:30N 58°36' E 008°57'0 0.1
2017-Sep-20 08:00N 58°36' E 008°57'1 1.3
2017-Sep-20 07:30N 58°36' E 008°58'0 0.8
2017-Sep-20 07:01N 58°36' E 008°57'3 5.7
2017-Sep-20 06:30N 58°34' E 009°00'4 8.8
2017-Sep-20 06:00N 58°30' E 008°57'4 7.9
2017-Sep-20 05:30N 58°26' E 008°53'4 7.8
2017-Sep-20 05:01N 58°25' E 008°45'0 0.4
2017-Sep-20 04:30N 58°26' E 008°45'0 0.0
2017-Sep-20 04:00N 58°26' E 008°45'0 0.0
2017-Sep-20 03:30N 58°26' E 008°45'0 0.0
2017-Sep-20 03:00N 58°26' E 008°45'0 0.0
2017-Sep-20 02:30N 58°26' E 008°45'0 0.0
2017-Sep-20 02:00N 58°26' E 008°45'0 0.0
2017-Sep-20 01:30N 58°26' E 008°45'0 0.0
2017-Sep-20 01:00N 58°26' E 008°45'0 0.0
2017-Sep-20 00:30N 58°26' E 008°45'0 0.0
2017-Sep-20 00:00N 58°26' E 008°45'0 0.0
2017-Sep-19 23:30N 58°26' E 008°45'0 0.0
2017-Sep-19 23:00N 58°26' E 008°45'0 0.0
2017-Sep-19 22:30N 58°26' E 008°45'0 0.0
2017-Sep-19 22:00N 58°26' E 008°45'0 0.0
2017-Sep-19 21:30N 58°26' E 008°45'0 0.0
2017-Sep-19 21:00N 58°26' E 008°45'0 0.0
2017-Sep-19 20:30N 58°26' E 008°45'0 0.0
2017-Sep-19 20:00N 58°26' E 008°45'0 0.0
2017-Sep-19 19:30N 58°26' E 008°45'0 0.0
2017-Sep-19 19:00N 58°26' E 008°45'0 0.0
2017-Sep-19 18:30N 58°26' E 008°45'0 0.0
2017-Sep-19 18:00N 58°26' E 008°45'0 0.0
2017-Sep-19 17:30N 58°26' E 008°45'0 0.0
2017-Sep-19 17:00N 58°26' E 008°45'0 0.0
2017-Sep-19 16:30N 58°26' E 008°45'0 0.0
2017-Sep-19 16:00N 58°26' E 008°45'0 0.0
2017-Sep-19 15:30N 58°26' E 008°45'0 0.0
2017-Sep-19 15:00N 58°26' E 008°45'0 0.0
2017-Sep-19 14:30N 58°26' E 008°45'0 0.0
2017-Sep-19 14:00N 58°26' E 008°45'0 0.0
2017-Sep-19 13:30N 58°26' E 008°45'0 0.0
2017-Sep-19 13:00N 58°26' E 008°45'0 0.0
2017-Sep-19 12:30N 58°26' E 008°45'0 0.0
2017-Sep-19 12:00N 58°26' E 008°45'1 2.6
2017-Sep-19 11:30N 58°24' E 008°46'4 8.5
2017-Sep-19 11:00N 58°21' E 008°41'1 2.6
2017-Sep-19 10:30N 58°20' E 008°39'1 1.6
2017-Sep-19 10:00N 58°20' E 008°38'1 2.6
2017-Sep-19 09:30N 58°20' E 008°35'1 1.1
2017-Sep-19 09:01N 58°19' E 008°35'1 1.9
2017-Sep-19 08:31N 58°18' E 008°34'2 4.4
2017-Sep-19 08:01N 58°17' E 008°31'0 0.1
2017-Sep-19 07:30N 58°17' E 008°31'0 0.2
2017-Sep-19 07:00N 58°17' E 008°31'2 3.0
2017-Sep-19 06:30N 58°15' E 008°30'3 6.7
2017-Sep-19 06:00N 58°14' E 008°24'1 1.3
2017-Sep-19 05:30N 58°15' E 008°23'0 0.0
2017-Sep-19 05:00N 58°15' E 008°23'0 0.0
2017-Sep-19 04:30N 58°15' E 008°23'0 0.0
2017-Sep-19 04:01N 58°15' E 008°23'0 0.0
2017-Sep-19 03:31N 58°15' E 008°23'0 0.0
2017-Sep-19 03:01N 58°15' E 008°23'0 0.0
2017-Sep-19 02:30N 58°15' E 008°23'0 0.0
2017-Sep-19 02:00N 58°15' E 008°23'0 0.0
2017-Sep-19 01:30N 58°15' E 008°23'0 0.0
2017-Sep-19 01:00N 58°15' E 008°23'0 0.0
2017-Sep-19 00:30N 58°15' E 008°23'0 0.0
2017-Sep-19 00:00N 58°15' E 008°23'0 0.0
2017-Sep-18 23:30N 58°15' E 008°23'0 0.0
2017-Sep-18 23:00N 58°15' E 008°23'0 0.0
2017-Sep-18 22:30N 58°15' E 008°23'0 0.0
2017-Sep-18 22:00N 58°15' E 008°23'0 0.0
2017-Sep-18 21:30N 58°15' E 008°23'0 0.0
2017-Sep-18 21:00N 58°15' E 008°23'0 0.0
2017-Sep-18 20:30N 58°15' E 008°23'0 0.0
2017-Sep-18 20:00N 58°15' E 008°23'0 0.0
2017-Sep-18 19:30N 58°15' E 008°23'0 0.0
2017-Sep-18 19:00N 58°15' E 008°23'0 0.0
2017-Sep-18 18:30N 58°15' E 008°23'0 0.0
2017-Sep-18 18:00N 58°15' E 008°23'0 0.0
2017-Sep-18 17:31N 58°15' E 008°23'0 0.0
2017-Sep-18 17:00N 58°15' E 008°23'0 0.0
2017-Sep-18 16:30N 58°15' E 008°23'0 0.0
2017-Sep-18 16:00N 58°15' E 008°23'0 0.1
2017-Sep-18 15:30N 58°15' E 008°23'4 7.2
2017-Sep-18 15:00N 58°11' E 008°22'2 3.1
2017-Sep-18 14:30N 58°11' E 008°19'1 2.6
2017-Sep-18 14:00N 58°12' E 008°18'0 0.3
2017-Sep-18 13:30N 58°12' E 008°18'0 0.0
2017-Sep-18 13:00N 58°12' E 008°18'1 1.5
2017-Sep-18 12:30N 58°12' E 008°17'0 0.1
2017-Sep-18 12:00N 58°12' E 008°17'0 0.1
2017-Sep-18 11:30N 58°12' E 008°17'0 0.1
2017-Sep-18 11:00N 58°12' E 008°17'0 0.1
2017-Sep-18 10:30N 58°12' E 008°17'3 5.5
2017-Sep-18 10:00N 58°10' E 008°19'2 4.0
2017-Sep-18 09:30N 58°09' E 008°16'0 0.0
2017-Sep-18 09:00N 58°09' E 008°16'0 0.0
2017-Sep-18 08:30N 58°09' E 008°16'0 0.0
2017-Sep-18 08:00N 58°09' E 008°16'0 0.6
2017-Sep-18 07:30N 58°08' E 008°16'3 5.5
2017-Sep-18 07:00N 58°06' E 008°13'4 7.4
2017-Sep-18 06:30N 58°07' E 008°06'4 7.5
2017-Sep-18 06:00N 58°09' E 007°59'0 0.0
2017-Sep-18 05:30N 58°09' E 007°59'0 0.0
2017-Sep-18 05:00N 58°09' E 007°59'0 0.0
2017-Sep-18 04:30N 58°09' E 007°59'0 0.0
2017-Sep-18 04:00N 58°09' E 007°59'0 0.0
2017-Sep-18 03:30N 58°09' E 007°59'0 0.0
2017-Sep-18 03:00N 58°09' E 007°59'0 0.0
2017-Sep-18 02:30N 58°09' E 007°59'0 0.0
2017-Sep-18 02:00N 58°09' E 007°59'0 0.0
2017-Sep-18 01:30N 58°09' E 007°59'0 0.0
2017-Sep-18 01:00N 58°09' E 007°59'0 0.0
2017-Sep-18 00:30N 58°09' E 007°59'0 0.0
2017-Sep-18 00:00N 58°09' E 007°59'0 0.0
2017-Sep-17 23:29N 58°09' E 007°59'0 0.0
2017-Sep-17 23:00N 58°09' E 007°59'0 0.0
2017-Sep-17 22:30N 58°09' E 007°59'0 0.0
2017-Sep-17 22:00N 58°09' E 007°59'0 0.0
2017-Sep-17 21:30N 58°09' E 007°59'0 0.0
2017-Sep-17 21:00N 58°09' E 007°60'0 0.0
2017-Sep-17 20:30N 58°09' E 007°59'0 0.0
2017-Sep-17 20:00N 58°09' E 007°59'0 0.0
2017-Sep-17 19:30N 58°09' E 007°59'0 0.0
2017-Sep-17 19:01N 58°09' E 007°59'0 0.0
2017-Sep-17 18:30N 58°09' E 007°59'0 0.0
2017-Sep-17 18:00N 58°09' E 007°59'0 0.0
2017-Sep-17 17:31N 58°09' E 007°59'0 0.0
2017-Sep-17 16:59N 58°09' E 007°59'0 0.0
2017-Sep-17 16:30N 58°09' E 007°59'0 0.0
2017-Sep-17 16:00N 58°09' E 007°59'0 0.0
2017-Sep-17 15:30N 58°09' E 007°59'0 0.0
2017-Sep-17 15:00N 58°09' E 007°59'0 0.0
2017-Sep-17 14:30N 58°09' E 007°59'0 0.0
2017-Sep-17 14:00N 58°09' E 007°59'0 0.0
2017-Sep-17 13:31N 58°09' E 007°59'0 0.0
2017-Sep-17 13:00N 58°09' E 007°59'0 0.0
2017-Sep-17 12:30N 58°09' E 007°59'2 4.3
2017-Sep-17 12:00N 58°09' E 008°03'2 3.3
2017-Sep-17 11:30N 58°11' E 008°03'1 2.0
2017-Sep-17 10:59N 58°12' E 008°04'0 0.7
2017-Sep-17 10:30N 58°12' E 008°03'0 0.1
2017-Sep-17 10:00N 58°12' E 008°03'1 1.6
2017-Sep-17 09:30N 58°12' E 008°04'1 2.0
2017-Sep-17 09:00N 58°11' E 008°05'1 1.1
2017-Sep-17 08:30N 58°10' E 008°04'1 2.6
2017-Sep-17 08:00N 58°09' E 008°03'0 0.6
2017-Sep-17 07:30N 58°09' E 008°03'0 0.3
2017-Sep-17 07:00N 58°09' E 008°03'0 0.0
2017-Sep-17 06:30N 58°09' E 008°03'2 3.4
2017-Sep-17 06:00N 58°09' E 007°59'0 0.0
2017-Sep-17 05:30N 58°09' E 007°59'0 0.0
2017-Sep-17 05:00N 58°09' E 007°59'0 0.0
2017-Sep-17 04:30N 58°09' E 007°59'0 0.0
2017-Sep-17 04:00N 58°09' E 007°59'0 0.0
2017-Sep-17 03:30N 58°09' E 007°59'0 0.0
2017-Sep-17 03:00N 58°09' E 007°59'0 0.0
2017-Sep-17 02:30N 58°09' E 007°59'0 0.0
2017-Sep-17 02:00N 58°09' E 007°59'0 0.0
2017-Sep-17 01:30N 58°09' E 007°59'0 0.0
2017-Sep-17 01:00N 58°09' E 007°59'0 0.0
2017-Sep-17 00:30N 58°09' E 007°59'0 0.0
2017-Sep-17 00:00N 58°09' E 007°59'0 0.0
2017-Sep-16 23:30N 58°09' E 007°59'0 0.0
2017-Sep-16 23:00N 58°09' E 007°59'0 0.0
2017-Sep-16 22:30N 58°09' E 007°59'0 0.0
2017-Sep-16 22:00N 58°09' E 007°59'0 0.0
2017-Sep-16 21:30N 58°09' E 007°59'0 0.0
2017-Sep-16 21:01N 58°09' E 007°59'0 0.0
2017-Sep-16 20:31N 58°09' E 007°59'0 0.0
2017-Sep-16 20:00N 58°09' E 007°59'0 0.0
2017-Sep-16 19:30N 58°09' E 007°59'0 0.0
2017-Sep-16 19:00N 58°09' E 007°59'0 0.0
2017-Sep-16 18:30N 58°09' E 007°59'0 0.0
2017-Sep-16 18:00N 58°09' E 007°59'0 0.0
2017-Sep-16 17:30N 58°09' E 007°59'0 0.0
2017-Sep-16 16:59N 58°09' E 007°59'0 0.0
2017-Sep-16 16:30N 58°09' E 007°59'0 0.0
2017-Sep-16 16:01N 58°09' E 007°59'0 0.0
2017-Sep-16 15:30N 58°09' E 007°59'0 0.0
2017-Sep-16 15:00N 58°09' E 007°59'2 3.7
2017-Sep-16 14:30N 58°07' E 008°02'3 6.4
2017-Sep-16 14:00N 58°05' E 007°58'4 8.3
2017-Sep-16 13:30N 58°04' E 007°50'2 4.2
2017-Sep-16 13:00N 58°04' E 007°47'0 0.6
2017-Sep-16 12:30N 58°04' E 007°46'0 0.3
2017-Sep-16 12:00N 58°04' E 007°47'0 0.6
2017-Sep-16 11:30N 58°04' E 007°46'0 0.2
2017-Sep-16 11:00N 58°04' E 007°47'4 7.6
2017-Sep-16 10:30N 58°04' E 007°54'4 8.8
2017-Sep-16 10:00N 58°06' E 008°01'4 7.1
2017-Sep-16 09:30N 58°06' E 008°08'4 8.6
2017-Sep-16 09:00N 58°08' E 008°15'5 9.4
2017-Sep-16 08:31N 58°11' E 008°22'5 9.5
2017-Sep-16 08:00N 58°15' E 008°28'4 8.6
2017-Sep-16 07:30N 58°18' E 008°34'4 8.9
2017-Sep-16 07:01N 58°21' E 008°39'5 9.5
2017-Sep-16 06:31N 58°24' E 008°46'2 3.1
2017-Sep-16 06:00N 58°26' E 008°45'0 0.0
2017-Sep-16 05:30N 58°26' E 008°45'0 0.0
2017-Sep-16 05:00N 58°26' E 008°45'0 0.0
2017-Sep-16 04:30N 58°26' E 008°45'0 0.0
2017-Sep-16 04:00N 58°26' E 008°45'0 0.0
2017-Sep-16 03:30N 58°26' E 008°45'0 0.0
2017-Sep-16 03:00N 58°26' E 008°45'0 0.0
2017-Sep-16 02:30N 58°26' E 008°45'0 0.0
2017-Sep-16 02:00N 58°26' E 008°45'0 0.0
2017-Sep-16 01:30N 58°26' E 008°45'0 0.0
2017-Sep-16 01:00N 58°26' E 008°45'0 0.0
2017-Sep-16 00:31N 58°26' E 008°45'0 0.0
2017-Sep-16 00:00N 58°26' E 008°45'0 0.0
2017-Sep-15 23:30N 58°26' E 008°45'0 0.0
2017-Sep-15 23:00N 58°26' E 008°45'0 0.0
2017-Sep-15 22:30N 58°26' E 008°45'0 0.0
2017-Sep-15 21:59N 58°26' E 008°45'0 0.0
2017-Sep-15 21:30N 58°26' E 008°45'0 0.0
2017-Sep-15 21:00N 58°26' E 008°45'0 0.0
2017-Sep-15 20:30N 58°26' E 008°45'0 0.0
2017-Sep-15 19:59N 58°26' E 008°45'0 0.0
2017-Sep-15 19:30N 58°26' E 008°45'0 0.0
2017-Sep-15 19:00N 58°26' E 008°45'0 0.0
2017-Sep-15 18:30N 58°26' E 008°45'0 0.0
2017-Sep-15 18:00N 58°26' E 008°45'0 0.0
2017-Sep-15 17:30N 58°26' E 008°45'0 0.0
2017-Sep-15 17:00N 58°26' E 008°45'0 0.0
2017-Sep-15 16:30N 58°26' E 008°45'0 0.0
2017-Sep-15 16:00N 58°26' E 008°45'0 0.0
2017-Sep-15 15:29N 58°26' E 008°45'1 1.9
2017-Sep-15 15:01N 58°25' E 008°46'5 9.0
2017-Sep-15 14:30N 58°21' E 008°52'4 8.5
2017-Sep-15 14:00N 58°18' E 008°57'5 9.4
2017-Sep-15 13:30N 58°14' E 009°03'5 9.8
2017-Sep-15 13:00N 58°11' E 009°09'6 9.8
2017-Sep-15 12:24N 58°06' E 009°16'4 9.4
2017-Sep-15 12:00N 58°03' E 009°21'5 9.1
2017-Sep-15 11:29N 57°60' E 009°26'6 8.8
2017-Sep-15 10:51N 57°55' E 009°33'4 8.8
2017-Sep-15 10:26N 57°52' E 009°37'4 8.6
2017-Sep-15 09:58N 57°49' E 009°40'6 8.9
2017-Sep-15 09:15N 57°44' E 009°47'2 8.8
2017-Sep-15 08:59N 57°42' E 009°50'4 8.9
2017-Sep-15 08:29N 57°38' E 009°55'3 3.9
2017-Sep-15 07:43N 57°36' E 009°57'  
Track history (hours):
 
Tides and Currents Weather Stations Pressure Air Temp Water Temp Dewpoint Dewpoint Depression Visibility Wind Speed Wind Dir Waves Ship Positions

Oceanographic research ship G. M. Dannevig (Norway)

Detailed information on ship capabilities available from University of Delaware's Ocean Information Center.

Last reported at 2017-Sep-24 16:59 UTC. Time now 2017-Sep-24 17:26 UTC.
Position N 59°00' E 009°45'.

Length 27 m; draft 0.35 m.

Type: Dredging. MMSI: 258513000.

Date/timePositionNaut miles runAvg speedWind from/ knotsBaromVisibWave heightAir tempDewpointWater temp
2017-Sep-24 16:59N 59°00' E 009°45'0 0.0
2017-Sep-24 16:30N 59°00' E 009°45'0 0.0
2017-Sep-24 16:00N 59°00' E 009°45'0 0.0
2017-Sep-24 15:30N 59°00' E 009°45'0 0.0
2017-Sep-24 15:00N 59°00' E 009°45'0 0.0
2017-Sep-24 14:30N 59°00' E 009°45'0 0.0
2017-Sep-24 14:00N 59°00' E 009°45'0 0.0
2017-Sep-24 13:30N 59°00' E 009°45'1 1.2
2017-Sep-24 13:00N 59°01' E 009°45'4 8.8
2017-Sep-24 12:30N 59°05' E 009°42'1 2.3
2017-Sep-24 12:00N 59°06' E 009°43'1 1.0
2017-Sep-24 11:30N 59°05' E 009°42'2 4.8
2017-Sep-24 11:00N 59°03' E 009°43'4 7.7
2017-Sep-24 10:30N 58°59' E 009°45'4 8.2
2017-Sep-24 10:00N 58°56' E 009°41'4 8.5
2017-Sep-24 09:30N 58°54' E 009°33'3 5.5
2017-Sep-24 09:00N 58°54' E 009°28'0 0.9
2017-Sep-24 08:30N 58°54' E 009°28'0 0.1
2017-Sep-24 07:59N 58°54' E 009°28'0 0.2
2017-Sep-24 07:30N 58°54' E 009°28'0 0.1
2017-Sep-24 07:00N 58°54' E 009°28'0 0.1
2017-Sep-24 06:30N 58°54' E 009°28'2 4.5
2017-Sep-24 06:00N 58°52' E 009°25'0 0.0
2017-Sep-24 05:30N 58°52' E 009°25'0 0.0
2017-Sep-24 05:00N 58°52' E 009°25'0 0.0
2017-Sep-24 04:30N 58°52' E 009°25'0 0.0
2017-Sep-24 04:00N 58°52' E 009°25'0 0.0
2017-Sep-24 03:31N 58°52' E 009°25'0 0.0
2017-Sep-24 03:00N 58°52' E 009°25'0 0.0
2017-Sep-24 02:31N 58°52' E 009°25'0 0.0
2017-Sep-24 02:00N 58°52' E 009°25'0 0.0
2017-Sep-24 01:30N 58°52' E 009°25'0 0.0
2017-Sep-24 01:00N 58°52' E 009°25'0 0.0
2017-Sep-24 00:30N 58°52' E 009°25'0 0.0
2017-Sep-24 00:00N 58°52' E 009°25'0 0.0
2017-Sep-23 23:30N 58°52' E 009°25'0 0.0
2017-Sep-23 23:00N 58°52' E 009°25'0 0.0
2017-Sep-23 22:30N 58°52' E 009°25'0 0.0
2017-Sep-23 22:00N 58°52' E 009°25'0 0.0
2017-Sep-23 21:30N 58°52' E 009°25'0 0.0
2017-Sep-23 21:00N 58°52' E 009°25'0 0.0
2017-Sep-23 20:30N 58°52' E 009°25'0 0.0
2017-Sep-23 20:00N 58°52' E 009°25'11 0.3
2017-Sep-22 02:00N 58°43' E 009°14'0 0.0
2017-Sep-22 01:30N 58°43' E 009°14'0 0.0
2017-Sep-22 01:00N 58°43' E 009°14'0 0.0
2017-Sep-22 00:30N 58°43' E 009°14'0 0.0
2017-Sep-22 00:00N 58°43' E 009°14'0 0.0
2017-Sep-21 23:31N 58°43' E 009°14'0 0.0
2017-Sep-21 23:00N 58°43' E 009°14'0 0.0
2017-Sep-21 22:30N 58°43' E 009°14'0 0.0
2017-Sep-21 22:00N 58°43' E 009°14'0 0.0
2017-Sep-21 21:30N 58°43' E 009°14'0 0.0
2017-Sep-21 21:00N 58°43' E 009°14'0 0.0
2017-Sep-21 20:30N 58°43' E 009°14'0 0.0
2017-Sep-21 20:00N 58°43' E 009°14'0 0.0
2017-Sep-21 19:30N 58°43' E 009°14'0 0.0
2017-Sep-21 19:00N 58°43' E 009°14'0 0.0
2017-Sep-21 18:30N 58°43' E 009°14'0 0.0
2017-Sep-21 18:00N 58°43' E 009°14'0 0.0
2017-Sep-21 17:29N 58°43' E 009°14'0 0.0
2017-Sep-21 16:59N 58°43' E 009°14'0 0.0
2017-Sep-21 16:30N 58°43' E 009°14'0 0.0
2017-Sep-21 16:00N 58°43' E 009°14'0 0.0
2017-Sep-21 15:30N 58°43' E 009°14'1 2.7
2017-Sep-21 15:00N 58°44' E 009°15'3 6.0
2017-Sep-21 14:30N 58°44' E 009°10'1 2.6
2017-Sep-21 14:00N 58°44' E 009°07'2 3.1
2017-Sep-21 13:30N 58°43' E 009°11'3 6.2
2017-Sep-21 13:00N 58°44' E 009°05'4 7.9
2017-Sep-21 12:29N 58°44' E 009°13'1 2.9
2017-Sep-21 12:00N 58°44' E 009°15'3 6.2
2017-Sep-21 11:30N 58°42' E 009°10'1 1.1
2017-Sep-21 11:00N 58°42' E 009°09'0 0.1
2017-Sep-21 10:30N 58°42' E 009°09'0 0.4
2017-Sep-21 10:00N 58°42' E 009°09'1 1.3
2017-Sep-21 09:30N 58°42' E 009°08'0 0.6
2017-Sep-21 09:00N 58°41' E 009°07'0 0.2
2017-Sep-21 08:30N 58°42' E 009°07'1 2.1
2017-Sep-21 08:00N 58°41' E 009°06'0 0.2
2017-Sep-21 07:30N 58°41' E 009°05'0 0.3
2017-Sep-21 07:00N 58°41' E 009°05'3 6.0
2017-Sep-21 06:29N 58°42' E 009°11'2 4.5
2017-Sep-21 05:59N 58°43' E 009°14'0 0.0
2017-Sep-21 05:30N 58°43' E 009°14'0 0.0
2017-Sep-21 05:00N 58°43' E 009°14'0 0.0
2017-Sep-21 04:30N 58°43' E 009°14'0 0.0
2017-Sep-21 04:00N 58°43' E 009°14'0 0.0
2017-Sep-21 03:30N 58°43' E 009°14'0 0.0
2017-Sep-21 03:00N 58°43' E 009°14'0 0.0
2017-Sep-21 02:30N 58°43' E 009°14'0 0.0
2017-Sep-21 02:00N 58°43' E 009°14'0 0.0
2017-Sep-21 01:30N 58°43' E 009°14'0 0.0
2017-Sep-21 01:00N 58°43' E 009°14'0 0.0
2017-Sep-21 00:31N 58°43' E 009°14'0 0.0
2017-Sep-21 00:00N 58°43' E 009°14'0 0.0
2017-Sep-20 23:30N 58°43' E 009°14'0 0.0
2017-Sep-20 23:00N 58°43' E 009°14'0 0.0
2017-Sep-20 22:30N 58°43' E 009°14'0 0.0
2017-Sep-20 22:00N 58°43' E 009°14'0 0.0
2017-Sep-20 21:30N 58°43' E 009°14'0 0.0
2017-Sep-20 21:00N 58°43' E 009°14'0 0.0
2017-Sep-20 20:30N 58°43' E 009°14'0 0.0
2017-Sep-20 20:00N 58°43' E 009°14'0 0.0
2017-Sep-20 19:30N 58°43' E 009°14'0 0.0
2017-Sep-20 18:59N 58°43' E 009°14'0 0.0
2017-Sep-20 18:30N 58°43' E 009°14'0 0.0
2017-Sep-20 18:00N 58°43' E 009°14'0 0.0
2017-Sep-20 17:30N 58°43' E 009°14'0 0.0
2017-Sep-20 17:00N 58°43' E 009°14'0 0.0
2017-Sep-20 16:30N 58°43' E 009°14'0 0.0
2017-Sep-20 16:00N 58°43' E 009°14'0 0.0
2017-Sep-20 15:30N 58°43' E 009°14'2 3.9
2017-Sep-20 15:00N 58°42' E 009°12'1 0.6
2017-Sep-20 14:00N 58°42' E 009°13'2 5.1
2017-Sep-20 13:30N 58°40' E 009°12'3 6.6
2017-Sep-20 13:00N 58°38' E 009°06'0 0.9
2017-Sep-20 12:30N 58°38' E 009°06'1 2.2
2017-Sep-20 12:00N 58°37' E 009°04'0 0.2
2017-Sep-20 11:30N 58°37' E 009°04'1 2.3
2017-Sep-20 11:00N 58°37' E 009°02'0 0.1
2017-Sep-20 10:30N 58°37' E 009°02'0 0.0
2017-Sep-20 10:00N 58°37' E 009°02'2 4.6
2017-Sep-20 09:30N 58°35' E 009°02'2 4.8
2017-Sep-20 09:00N 58°36' E 008°58'1 1.4
2017-Sep-20 08:30N 58°36' E 008°57'0 0.1
2017-Sep-20 08:00N 58°36' E 008°57'1 1.3
2017-Sep-20 07:30N 58°36' E 008°58'0 0.8
2017-Sep-20 07:01N 58°36' E 008°57'3 5.7
2017-Sep-20 06:30N 58°34' E 009°00'4 8.8
2017-Sep-20 06:00N 58°30' E 008°57'4 7.9
2017-Sep-20 05:30N 58°26' E 008°53'4 7.8
2017-Sep-20 05:01N 58°25' E 008°45'0 0.4
2017-Sep-20 04:30N 58°26' E 008°45'0 0.0
2017-Sep-20 04:00N 58°26' E 008°45'0 0.0
2017-Sep-20 03:30N 58°26' E 008°45'0 0.0
2017-Sep-20 03:00N 58°26' E 008°45'0 0.0
2017-Sep-20 02:30N 58°26' E 008°45'0 0.0
2017-Sep-20 02:00N 58°26' E 008°45'0 0.0
2017-Sep-20 01:30N 58°26' E 008°45'0 0.0
2017-Sep-20 01:00N 58°26' E 008°45'0 0.0
2017-Sep-20 00:30N 58°26' E 008°45'0 0.0
2017-Sep-20 00:00N 58°26' E 008°45'0 0.0
2017-Sep-19 23:30N 58°26' E 008°45'0 0.0
2017-Sep-19 23:00N 58°26' E 008°45'0 0.0
2017-Sep-19 22:30N 58°26' E 008°45'0 0.0
2017-Sep-19 22:00N 58°26' E 008°45'0 0.0
2017-Sep-19 21:30N 58°26' E 008°45'0 0.0
2017-Sep-19 21:00N 58°26' E 008°45'0 0.0
2017-Sep-19 20:30N 58°26' E 008°45'0 0.0
2017-Sep-19 20:00N 58°26' E 008°45'0 0.0
2017-Sep-19 19:30N 58°26' E 008°45'0 0.0
2017-Sep-19 19:00N 58°26' E 008°45'0 0.0
2017-Sep-19 18:30N 58°26' E 008°45'0 0.0
2017-Sep-19 18:00N 58°26' E 008°45'0 0.0
2017-Sep-19 17:30N 58°26' E 008°45'0 0.0
2017-Sep-19 17:00N 58°26' E 008°45'0 0.0
2017-Sep-19 16:30N 58°26' E 008°45'0 0.0
2017-Sep-19 16:00N 58°26' E 008°45'0 0.0
2017-Sep-19 15:30N 58°26' E 008°45'0 0.0
2017-Sep-19 15:00N 58°26' E 008°45'0 0.0
2017-Sep-19 14:30N 58°26' E 008°45'0 0.0
2017-Sep-19 14:00N 58°26' E 008°45'0 0.0
2017-Sep-19 13:30N 58°26' E 008°45'0 0.0
2017-Sep-19 13:00N 58°26' E 008°45'0 0.0
2017-Sep-19 12:30N 58°26' E 008°45'0 0.0
2017-Sep-19 12:00N 58°26' E 008°45'1 2.6
2017-Sep-19 11:30N 58°24' E 008°46'4 8.5
2017-Sep-19 11:00N 58°21' E 008°41'1 2.6
2017-Sep-19 10:30N 58°20' E 008°39'1 1.6
2017-Sep-19 10:00N 58°20' E 008°38'1 2.6
2017-Sep-19 09:30N 58°20' E 008°35'1 1.1
2017-Sep-19 09:01N 58°19' E 008°35'1 1.9
2017-Sep-19 08:31N 58°18' E 008°34'2 4.4
2017-Sep-19 08:01N 58°17' E 008°31'0 0.1
2017-Sep-19 07:30N 58°17' E 008°31'0 0.2
2017-Sep-19 07:00N 58°17' E 008°31'2 3.0
2017-Sep-19 06:30N 58°15' E 008°30'3 6.7
2017-Sep-19 06:00N 58°14' E 008°24'1 1.3
2017-Sep-19 05:30N 58°15' E 008°23'0 0.0
2017-Sep-19 05:00N 58°15' E 008°23'0 0.0
2017-Sep-19 04:30N 58°15' E 008°23'0 0.0
2017-Sep-19 04:01N 58°15' E 008°23'0 0.0
2017-Sep-19 03:31N 58°15' E 008°23'0 0.0
2017-Sep-19 03:01N 58°15' E 008°23'0 0.0
2017-Sep-19 02:30N 58°15' E 008°23'0 0.0
2017-Sep-19 02:00N 58°15' E 008°23'0 0.0
2017-Sep-19 01:30N 58°15' E 008°23'0 0.0
2017-Sep-19 01:00N 58°15' E 008°23'0 0.0
2017-Sep-19 00:30N 58°15' E 008°23'0 0.0
2017-Sep-19 00:00N 58°15' E 008°23'0 0.0
2017-Sep-18 23:30N 58°15' E 008°23'0 0.0
2017-Sep-18 23:00N 58°15' E 008°23'0 0.0
2017-Sep-18 22:30N 58°15' E 008°23'0 0.0
2017-Sep-18 22:00N 58°15' E 008°23'0 0.0
2017-Sep-18 21:30N 58°15' E 008°23'0 0.0
2017-Sep-18 21:00N 58°15' E 008°23'0 0.0
2017-Sep-18 20:30N 58°15' E 008°23'0 0.0
2017-Sep-18 20:00N 58°15' E 008°23'0 0.0
2017-Sep-18 19:30N 58°15' E 008°23'0 0.0
2017-Sep-18 19:00N 58°15' E 008°23'0 0.0
2017-Sep-18 18:30N 58°15' E 008°23'0 0.0
2017-Sep-18 18:00N 58°15' E 008°23'0 0.0
2017-Sep-18 17:31N 58°15' E 008°23'0 0.0
2017-Sep-18 17:00N 58°15' E 008°23'0 0.0
2017-Sep-18 16:30N 58°15' E 008°23'0 0.0
2017-Sep-18 16:00N 58°15' E 008°23'0 0.1
2017-Sep-18 15:30N 58°15' E 008°23'4 7.2
2017-Sep-18 15:00N 58°11' E 008°22'2 3.1
2017-Sep-18 14:30N 58°11' E 008°19'1 2.6
2017-Sep-18 14:00N 58°12' E 008°18'0 0.3
2017-Sep-18 13:30N 58°12' E 008°18'0 0.0
2017-Sep-18 13:00N 58°12' E 008°18'1 1.5
2017-Sep-18 12:30N 58°12' E 008°17'0 0.1
2017-Sep-18 12:00N 58°12' E 008°17'0 0.1
2017-Sep-18 11:30N 58°12' E 008°17'0 0.1
2017-Sep-18 11:00N 58°12' E 008°17'0 0.1
2017-Sep-18 10:30N 58°12' E 008°17'3 5.5
2017-Sep-18 10:00N 58°10' E 008°19'2 4.0
2017-Sep-18 09:30N 58°09' E 008°16'0 0.0
2017-Sep-18 09:00N 58°09' E 008°16'0 0.0
2017-Sep-18 08:30N 58°09' E 008°16'0 0.0
2017-Sep-18 08:00N 58°09' E 008°16'0 0.6
2017-Sep-18 07:30N 58°08' E 008°16'3 5.5
2017-Sep-18 07:00N 58°06' E 008°13'4 7.4
2017-Sep-18 06:30N 58°07' E 008°06'4 7.5
2017-Sep-18 06:00N 58°09' E 007°59'0 0.0
2017-Sep-18 05:30N 58°09' E 007°59'0 0.0
2017-Sep-18 05:00N 58°09' E 007°59'0 0.0
2017-Sep-18 04:30N 58°09' E 007°59'0 0.0
2017-Sep-18 04:00N 58°09' E 007°59'0 0.0
2017-Sep-18 03:30N 58°09' E 007°59'0 0.0
2017-Sep-18 03:00N 58°09' E 007°59'0 0.0
2017-Sep-18 02:30N 58°09' E 007°59'0 0.0
2017-Sep-18 02:00N 58°09' E 007°59'0 0.0
2017-Sep-18 01:30N 58°09' E 007°59'0 0.0
2017-Sep-18 01:00N 58°09' E 007°59'0 0.0
2017-Sep-18 00:30N 58°09' E 007°59'0 0.0
2017-Sep-18 00:00N 58°09' E 007°59'0 0.0
2017-Sep-17 23:29N 58°09' E 007°59'0 0.0
2017-Sep-17 23:00N 58°09' E 007°59'0 0.0
2017-Sep-17 22:30N 58°09' E 007°59'0 0.0
2017-Sep-17 22:00N 58°09' E 007°59'0 0.0
2017-Sep-17 21:30N 58°09' E 007°59'0 0.0
2017-Sep-17 21:00N 58°09' E 007°60'0 0.0
2017-Sep-17 20:30N 58°09' E 007°59'0 0.0
2017-Sep-17 20:00N 58°09' E 007°59'0 0.0
2017-Sep-17 19:30N 58°09' E 007°59'0 0.0
2017-Sep-17 19:01N 58°09' E 007°59'0 0.0
2017-Sep-17 18:30N 58°09' E 007°59'0 0.0
2017-Sep-17 18:00N 58°09' E 007°59'0 0.0
2017-Sep-17 17:31N 58°09' E 007°59'0 0.0
2017-Sep-17 16:59N 58°09' E 007°59'0 0.0
2017-Sep-17 16:30N 58°09' E 007°59'0 0.0
2017-Sep-17 16:00N 58°09' E 007°59'0 0.0
2017-Sep-17 15:30N 58°09' E 007°59'0 0.0
2017-Sep-17 15:00N 58°09' E 007°59'0 0.0
2017-Sep-17 14:30N 58°09' E 007°59'0 0.0
2017-Sep-17 14:00N 58°09' E 007°59'0 0.0
2017-Sep-17 13:31N 58°09' E 007°59'0 0.0
2017-Sep-17 13:00N 58°09' E 007°59'0 0.0
2017-Sep-17 12:30N 58°09' E 007°59'2 4.3
2017-Sep-17 12:00N 58°09' E 008°03'2 3.3
2017-Sep-17 11:30N 58°11' E 008°03'1 2.0
2017-Sep-17 10:59N 58°12' E 008°04'0 0.7
2017-Sep-17 10:30N 58°12' E 008°03'0 0.1
2017-Sep-17 10:00N 58°12' E 008°03'1 1.6
2017-Sep-17 09:30N 58°12' E 008°04'1 2.0
2017-Sep-17 09:00N 58°11' E 008°05'1 1.1
2017-Sep-17 08:30N 58°10' E 008°04'1 2.6
2017-Sep-17 08:00N 58°09' E 008°03'0 0.6
2017-Sep-17 07:30N 58°09' E 008°03'0 0.3
2017-Sep-17 07:00N 58°09' E 008°03'0 0.0
2017-Sep-17 06:30N 58°09' E 008°03'2 3.4
2017-Sep-17 06:00N 58°09' E 007°59'0 0.0
2017-Sep-17 05:30N 58°09' E 007°59'0 0.0
2017-Sep-17 05:00N 58°09' E 007°59'0 0.0
2017-Sep-17 04:30N 58°09' E 007°59'0 0.0
2017-Sep-17 04:00N 58°09' E 007°59'0 0.0
2017-Sep-17 03:30N 58°09' E 007°59'0 0.0
2017-Sep-17 03:00N 58°09' E 007°59'0 0.0
2017-Sep-17 02:30N 58°09' E 007°59'0 0.0
2017-Sep-17 02:00N 58°09' E 007°59'0 0.0
2017-Sep-17 01:30N 58°09' E 007°59'0 0.0
2017-Sep-17 01:00N 58°09' E 007°59'0 0.0
2017-Sep-17 00:30N 58°09' E 007°59'0 0.0
2017-Sep-17 00:00N 58°09' E 007°59'0 0.0
2017-Sep-16 23:30N 58°09' E 007°59'0 0.0
2017-Sep-16 23:00N 58°09' E 007°59'0 0.0
2017-Sep-16 22:30N 58°09' E 007°59'0 0.0
2017-Sep-16 22:00N 58°09' E 007°59'0 0.0
2017-Sep-16 21:30N 58°09' E 007°59'0 0.0
2017-Sep-16 21:01N 58°09' E 007°59'0 0.0
2017-Sep-16 20:31N 58°09' E 007°59'0 0.0
2017-Sep-16 20:00N 58°09' E 007°59'0 0.0
2017-Sep-16 19:30N 58°09' E 007°59'0 0.0
2017-Sep-16 19:00N 58°09' E 007°59'0 0.0
2017-Sep-16 18:30N 58°09' E 007°59'0 0.0
2017-Sep-16 18:00N 58°09' E 007°59'0 0.0
2017-Sep-16 17:30N 58°09' E 007°59'0 0.0
2017-Sep-16 16:59N 58°09' E 007°59'0 0.0
2017-Sep-16 16:30N 58°09' E 007°59'0 0.0
2017-Sep-16 16:01N 58°09' E 007°59'0 0.0
2017-Sep-16 15:30N 58°09' E 007°59'0 0.0
2017-Sep-16 15:00N 58°09' E 007°59'2 3.7
2017-Sep-16 14:30N 58°07' E 008°02'3 6.4
2017-Sep-16 14:00N 58°05' E 007°58'4 8.3
2017-Sep-16 13:30N 58°04' E 007°50'2 4.2
2017-Sep-16 13:00N 58°04' E 007°47'0 0.6
2017-Sep-16 12:30N 58°04' E 007°46'0 0.3
2017-Sep-16 12:00N 58°04' E 007°47'0 0.6
2017-Sep-16 11:30N 58°04' E 007°46'0 0.2
2017-Sep-16 11:00N 58°04' E 007°47'4 7.6
2017-Sep-16 10:30N 58°04' E 007°54'4 8.8
2017-Sep-16 10:00N 58°06' E 008°01'4 7.1
2017-Sep-16 09:30N 58°06' E 008°08'4 8.6
2017-Sep-16 09:00N 58°08' E 008°15'5 9.4
2017-Sep-16 08:31N 58°11' E 008°22'5 9.5
2017-Sep-16 08:00N 58°15' E 008°28'4 8.6
2017-Sep-16 07:30N 58°18' E 008°34'4 8.9
2017-Sep-16 07:01N 58°21' E 008°39'5 9.5
2017-Sep-16 06:31N 58°24' E 008°46'2 3.1
2017-Sep-16 06:00N 58°26' E 008°45'0 0.0
2017-Sep-16 05:30N 58°26' E 008°45'0 0.0
2017-Sep-16 05:00N 58°26' E 008°45'0 0.0
2017-Sep-16 04:30N 58°26' E 008°45'0 0.0
2017-Sep-16 04:00N 58°26' E 008°45'0 0.0
2017-Sep-16 03:30N 58°26' E 008°45'0 0.0
2017-Sep-16 03:00N 58°26' E 008°45'0 0.0
2017-Sep-16 02:30N 58°26' E 008°45'0 0.0
2017-Sep-16 02:00N 58°26' E 008°45'0 0.0
2017-Sep-16 01:30N 58°26' E 008°45'0 0.0
2017-Sep-16 01:00N 58°26' E 008°45'0 0.0
2017-Sep-16 00:31N 58°26' E 008°45'0 0.0
2017-Sep-16 00:00N 58°26' E 008°45'0 0.0
2017-Sep-15 23:30N 58°26' E 008°45'0 0.0
2017-Sep-15 23:00N 58°26' E 008°45'0 0.0
2017-Sep-15 22:30N 58°26' E 008°45'0 0.0
2017-Sep-15 21:59N 58°26' E 008°45'0 0.0
2017-Sep-15 21:30N 58°26' E 008°45'0 0.0
2017-Sep-15 21:00N 58°26' E 008°45'0 0.0
2017-Sep-15 20:30N 58°26' E 008°45'0 0.0
2017-Sep-15 19:59N 58°26' E 008°45'0 0.0
2017-Sep-15 19:30N 58°26' E 008°45'0 0.0
2017-Sep-15 19:00N 58°26' E 008°45'0 0.0
2017-Sep-15 18:30N 58°26' E 008°45'0 0.0
2017-Sep-15 18:00N 58°26' E 008°45'0 0.0
2017-Sep-15 17:30N 58°26' E 008°45'0 0.0
2017-Sep-15 17:00N 58°26' E 008°45'0 0.0
2017-Sep-15 16:30N 58°26' E 008°45'0 0.0
2017-Sep-15 16:00N 58°26' E 008°45'0 0.0
2017-Sep-15 15:29N 58°26' E 008°45'1 1.9
2017-Sep-15 15:01N 58°25' E 008°46'5 9.0
2017-Sep-15 14:30N 58°21' E 008°52'4 8.5
2017-Sep-15 14:00N 58°18' E 008°57'5 9.4
2017-Sep-15 13:30N 58°14' E 009°03'5 9.8
2017-Sep-15 13:00N 58°11' E 009°09'6 9.8
2017-Sep-15 12:24N 58°06' E 009°16'4 9.4
2017-Sep-15 12:00N 58°03' E 009°21'5 9.1
2017-Sep-15 11:29N 57°60' E 009°26'6 8.8
2017-Sep-15 10:51N 57°55' E 009°33'4 8.8
2017-Sep-15 10:26N 57°52' E 009°37'4 8.6
2017-Sep-15 09:58N 57°49' E 009°40'6 8.9
2017-Sep-15 09:15N 57°44' E 009°47'2 8.8
2017-Sep-15 08:59N 57°42' E 009°50'4 8.9
2017-Sep-15 08:29N 57°38' E 009°55'3 3.9
2017-Sep-15 07:43N 57°36' E 009°57'  

Dump ship's entire track history